createdAt,value
2017-08-08T00:00:53.833Z,60.90
2017-08-08T00:03:20.490Z,61.90
2017-08-08T00:05:47.035Z,61.60
2017-08-08T00:08:13.696Z,61.50
2017-08-08T00:10:40.249Z,61.20
2017-08-08T00:13:07.016Z,60.80
2017-08-08T00:15:33.974Z,61.20
2017-08-08T00:18:00.529Z,61.50
2017-08-08T00:20:27.137Z,61.50
2017-08-08T00:25:25.421Z,61.90
2017-08-08T00:27:51.967Z,62.30
2017-08-08T00:30:18.541Z,62.00
2017-08-08T00:32:45.095Z,61.90
2017-08-08T00:35:12.403Z,62.20
2017-08-08T00:37:38.931Z,62.20
2017-08-08T00:40:05.447Z,61.80
2017-08-08T00:42:32.050Z,62.30
2017-08-08T00:44:58.578Z,62.20
2017-08-08T00:47:25.168Z,60.80
2017-08-08T00:49:51.703Z,62.10
2017-08-08T00:52:21.694Z,61.80
2017-08-08T00:54:48.283Z,61.40
2017-08-08T00:57:14.820Z,62.00
2017-08-08T00:59:41.343Z,62.00
2017-08-08T01:02:08.005Z,62.60
2017-08-08T01:04:39.778Z,62.50
2017-08-08T01:07:06.144Z,61.70
2017-08-08T01:09:32.569Z,62.10
2017-08-08T01:11:59.132Z,61.20
2017-08-08T01:14:25.446Z,61.70
2017-08-08T01:16:51.971Z,62.20
2017-08-08T01:19:18.577Z,61.20
2017-08-08T01:21:45.932Z,61.00
2017-08-08T01:24:12.484Z,61.00
2017-08-08T01:26:39.554Z,61.40
2017-08-08T01:29:05.876Z,61.30
2017-08-08T01:31:32.201Z,61.00
2017-08-08T01:34:00.370Z,60.90
2017-08-08T01:36:27.838Z,61.50
2017-08-08T01:38:54.153Z,62.20
2017-08-08T01:41:20.489Z,62.10
2017-08-08T01:43:48.275Z,61.50
2017-08-08T01:46:14.609Z,61.00
2017-08-08T01:48:41.009Z,62.10
2017-08-08T01:51:07.508Z,61.40
2017-08-08T01:53:37.716Z,61.60
2017-08-08T01:56:04.302Z,62.00
2017-08-08T01:58:30.889Z,62.60
2017-08-08T02:00:57.488Z,61.80
2017-08-08T02:03:30.913Z,62.20
2017-08-08T02:05:57.297Z,61.70
2017-08-08T02:08:23.699Z,62.10
2017-08-08T02:10:50.098Z,62.20
2017-08-08T02:13:16.696Z,61.60
2017-08-08T02:15:43.268Z,62.40
2017-08-08T02:18:09.872Z,62.30
2017-08-08T02:20:40.628Z,63.70
2017-08-08T02:23:07.126Z,62.20
2017-08-08T02:25:34.222Z,62.40
2017-08-08T02:28:00.584Z,62.40
2017-08-08T02:30:26.948Z,62.60
2017-08-08T02:32:53.313Z,63.20
2017-08-08T02:35:19.652Z,62.40
2017-08-08T02:37:46.267Z,62.00
2017-08-08T02:40:12.900Z,63.00
2017-08-08T02:42:39.320Z,62.40
2017-08-08T02:45:05.845Z,62.50
2017-08-08T02:47:32.533Z,62.90
2017-08-08T02:49:58.852Z,62.50
2017-08-08T02:52:25.660Z,62.10
2017-08-08T02:54:52.016Z,62.40
2017-08-08T02:57:18.572Z,62.70
2017-08-08T02:59:45.088Z,62.40
2017-08-08T03:02:19.903Z,62.50
2017-08-08T03:04:46.351Z,62.30
2017-08-08T03:07:12.676Z,62.00
2017-08-08T03:09:38.977Z,62.80
2017-08-08T03:12:05.301Z,62.20
2017-08-08T03:14:31.632Z,62.00
2017-08-08T03:16:57.962Z,62.50
2017-08-08T03:19:24.548Z,62.80
2017-08-08T03:21:50.865Z,63.20
2017-08-08T03:24:17.209Z,62.80
2017-08-08T03:26:43.532Z,63.00
2017-08-08T03:29:09.937Z,63.60
2017-08-08T03:31:36.296Z,63.20
2017-08-08T03:34:02.659Z,62.50
2017-08-08T03:36:28.969Z,62.50
2017-08-08T03:38:55.523Z,60.50
2017-08-08T03:41:21.993Z,60.90
2017-08-08T03:43:48.563Z,62.10
2017-08-08T03:46:15.032Z,62.70
2017-08-08T03:48:41.705Z,61.10
2017-08-08T03:51:08.083Z,61.20
2017-08-08T03:53:34.640Z,61.90
2017-08-08T03:56:01.829Z,62.30
2017-08-08T03:58:28.474Z,62.30
2017-08-08T04:00:55.073Z,62.90
2017-08-08T04:03:21.713Z,62.70
2017-08-08T04:05:48.328Z,62.60
2017-08-08T04:08:14.820Z,62.50
2017-08-08T04:10:41.298Z,61.30
2017-08-08T04:13:09.717Z,63.00
2017-08-08T04:15:36.388Z,62.60
2017-08-08T04:18:02.985Z,62.30
2017-08-08T04:20:32.496Z,62.10
2017-08-08T04:22:59.179Z,59.90
2017-08-08T04:25:25.783Z,61.80
2017-08-08T04:27:52.416Z,61.90
2017-08-08T04:30:19.008Z,60.60
2017-08-08T04:32:45.568Z,60.00
2017-08-08T04:35:12.353Z,60.00
2017-08-08T04:37:39.007Z,59.60
2017-08-08T04:40:05.532Z,59.70
2017-08-08T04:42:32.119Z,60.00
2017-08-08T04:44:58.671Z,60.10
2017-08-08T04:47:27.012Z,59.80
2017-08-08T04:49:53.561Z,59.90
2017-08-08T04:52:20.234Z,59.60
2017-08-08T04:54:46.799Z,59.20
2017-08-08T04:57:13.348Z,59.20
2017-08-08T04:59:39.934Z,60.20
2017-08-08T05:02:06.396Z,61.40
2017-08-08T05:04:33.912Z,59.30
2017-08-08T05:07:00.567Z,60.10
2017-08-08T05:09:27.328Z,60.40
2017-08-08T05:11:53.890Z,60.80
2017-08-08T05:14:20.478Z,61.50
2017-08-08T05:16:47.101Z,62.30
2017-08-08T05:19:13.652Z,61.70
2017-08-08T05:21:48.866Z,61.60
2017-08-08T05:24:15.196Z,62.40
2017-08-08T05:26:41.605Z,61.50
2017-08-08T05:29:08.098Z,60.90
2017-08-08T05:31:34.423Z,61.30
2017-08-08T05:34:00.790Z,61.80
2017-08-08T05:36:27.266Z,61.80
2017-08-08T05:38:53.593Z,61.50
2017-08-08T05:41:19.995Z,60.20
2017-08-08T05:43:46.361Z,61.60
2017-08-08T05:46:12.738Z,61.30
2017-08-08T05:48:39.061Z,61.60
2017-08-08T05:51:05.394Z,59.40
2017-08-08T05:53:31.705Z,59.60
2017-08-08T05:56:01.132Z,60.10
2017-08-08T05:58:27.590Z,58.70
2017-08-08T06:00:53.984Z,58.80
2017-08-08T06:03:20.292Z,59.00
2017-08-08T06:05:46.607Z,58.80
2017-08-08T06:08:12.954Z,58.70
2017-08-08T06:10:39.895Z,58.50
2017-08-08T06:13:06.567Z,59.00
2017-08-08T06:15:32.877Z,58.10
2017-08-08T06:17:59.433Z,57.60
2017-08-08T06:20:25.917Z,58.10
2017-08-08T06:22:52.459Z,58.50
2017-08-08T06:25:19.045Z,59.90
2017-08-08T06:27:45.661Z,58.50
2017-08-08T06:30:12.217Z,57.80
2017-08-08T06:32:38.788Z,57.80
2017-08-08T06:35:05.338Z,56.70
2017-08-08T06:37:31.947Z,57.50
2017-08-08T06:39:58.617Z,57.80
2017-08-08T06:42:25.255Z,55.90
2017-08-08T06:44:51.833Z,56.90
2017-08-08T06:47:18.418Z,57.20
2017-08-08T06:49:44.963Z,57.10
2017-08-08T06:52:11.535Z,56.30
2017-08-08T06:54:38.073Z,53.70
2017-08-08T06:57:04.650Z,53.50
2017-08-08T06:59:31.213Z,53.20
2017-08-08T07:01:59.674Z,53.20
2017-08-08T07:04:26.284Z,53.70
2017-08-08T07:06:52.866Z,53.80
2017-08-08T07:09:19.486Z,52.40
2017-08-08T07:11:46.102Z,52.70
2017-08-08T07:14:12.855Z,52.50
2017-08-08T07:16:39.414Z,52.90
2017-08-08T07:19:05.984Z,51.80
2017-08-08T07:21:33.089Z,52.80
2017-08-08T07:23:59.720Z,54.00
2017-08-08T07:26:26.232Z,53.20
2017-08-08T07:28:53.180Z,51.80
2017-08-08T07:31:20.026Z,52.20
2017-08-08T07:33:46.620Z,52.00
2017-08-08T07:36:13.173Z,52.70
2017-08-08T07:38:39.773Z,50.70
2017-08-08T07:41:06.345Z,50.60
2017-08-08T07:43:32.864Z,49.20
2017-08-08T07:45:59.499Z,50.10
2017-08-08T07:48:26.057Z,48.70
2017-08-08T07:50:52.626Z,48.00
2017-08-08T07:53:19.959Z,47.50
2017-08-08T07:55:46.592Z,49.10
2017-08-08T07:58:13.141Z,49.80
2017-08-08T08:00:41.978Z,49.40
2017-08-08T08:03:09.280Z,50.30
2017-08-08T08:05:35.748Z,50.30
2017-08-08T08:08:03.057Z,47.70
2017-08-08T08:10:29.592Z,47.60
2017-08-08T08:12:56.181Z,49.50
2017-08-08T08:15:26.596Z,50.70
2017-08-08T08:17:53.165Z,49.30
2017-08-08T08:20:19.741Z,47.30
2017-08-08T08:22:46.055Z,48.20
2017-08-08T08:25:12.604Z,49.10
2017-08-08T08:27:39.068Z,46.40
2017-08-08T08:30:09.444Z,47.50
2017-08-08T08:32:36.091Z,50.30
2017-08-08T08:35:05.918Z,46.70
2017-08-08T08:37:32.509Z,46.20
2017-08-08T08:39:59.126Z,47.90
2017-08-08T08:42:25.720Z,47.50
2017-08-08T08:44:53.008Z,49.90
2017-08-08T08:47:19.492Z,49.90
2017-08-08T08:49:48.613Z,46.50
2017-08-08T08:52:15.165Z,48.40
2017-08-08T08:54:41.713Z,48.90
2017-08-08T08:57:08.989Z,48.10
2017-08-08T08:59:35.610Z,48.10
2017-08-08T09:02:02.105Z,48.00
2017-08-08T09:04:28.769Z,48.90
2017-08-08T09:07:00.378Z,51.10
2017-08-08T09:09:26.745Z,51.20
2017-08-08T09:11:53.853Z,49.50
2017-08-08T09:14:20.202Z,48.80
2017-08-08T09:16:46.580Z,48.00
2017-08-08T09:19:12.919Z,47.70
2017-08-08T09:21:43.003Z,48.30
2017-08-08T09:24:09.325Z,48.00
2017-08-08T09:26:35.644Z,46.60
2017-08-08T09:29:02.714Z,47.30
2017-08-08T09:31:29.052Z,47.20
2017-08-08T09:33:55.388Z,47.10
2017-08-08T09:36:21.723Z,47.90
2017-08-08T09:38:48.148Z,48.60
2017-08-08T09:41:14.480Z,48.60
2017-08-08T09:43:40.836Z,49.80
2017-08-08T09:46:08.186Z,49.10
2017-08-08T09:48:34.796Z,51.70
2017-08-08T09:51:01.456Z,52.50
2017-08-08T09:53:28.101Z,50.60
2017-08-08T09:55:54.639Z,51.60
2017-08-08T09:58:21.172Z,51.70
2017-08-08T10:00:51.520Z,48.60
2017-08-08T10:03:18.728Z,49.60
2017-08-08T10:05:45.277Z,49.60
2017-08-08T10:08:11.853Z,50.70
2017-08-08T10:10:38.395Z,49.20
2017-08-08T10:13:04.936Z,49.60
2017-08-08T10:15:34.941Z,52.40
2017-08-08T10:18:01.488Z,52.60
2017-08-08T10:20:27.966Z,51.40
2017-08-08T10:22:54.512Z,52.10
2017-08-08T10:25:21.044Z,52.40
2017-08-08T10:27:47.581Z,50.80
2017-08-08T10:30:14.203Z,51.80
2017-08-08T10:32:40.513Z,52.60
2017-08-08T10:35:11.482Z,51.80
2017-08-08T10:37:38.173Z,53.00
2017-08-08T10:40:04.779Z,53.90
2017-08-08T10:42:31.439Z,51.00
2017-08-08T10:45:02.611Z,52.40
2017-08-08T10:47:28.932Z,53.00
2017-08-08T10:49:56.211Z,52.40
2017-08-08T10:52:28.757Z,52.40
2017-08-08T10:54:55.092Z,52.40
2017-08-08T10:57:21.400Z,53.40
2017-08-08T10:59:47.719Z,52.40
2017-08-08T11:02:14.277Z,53.10
2017-08-08T11:04:40.942Z,54.00
2017-08-08T11:07:09.240Z,53.80
2017-08-08T11:09:35.877Z,55.00
2017-08-08T11:12:02.416Z,54.90
2017-08-08T11:14:29.119Z,54.20
2017-08-08T11:16:55.737Z,55.40
2017-08-08T11:19:22.369Z,55.30
2017-08-08T11:21:52.191Z,55.40
2017-08-08T11:24:19.489Z,55.60
2017-08-08T11:26:46.037Z,55.60
2017-08-08T11:29:13.346Z,57.30
2017-08-08T11:31:39.937Z,57.30
2017-08-08T11:34:06.533Z,57.70
2017-08-08T11:36:35.477Z,57.60
2017-08-08T11:39:03.464Z,57.50
2017-08-08T11:41:30.740Z,58.60
2017-08-08T11:43:57.186Z,58.00
2017-08-08T11:46:23.833Z,58.80
2017-08-08T11:48:50.413Z,59.20
2017-08-08T11:51:16.976Z,59.20
2017-08-08T11:53:43.571Z,59.40
2017-08-08T11:56:16.677Z,59.80
2017-08-08T11:58:43.013Z,59.30
2017-08-08T12:01:09.543Z,60.10
2017-08-08T12:03:36.158Z,61.20
2017-08-08T12:06:02.869Z,60.80
2017-08-08T12:08:29.445Z,59.90
2017-08-08T12:11:00.895Z,59.20
2017-08-08T12:13:27.488Z,59.50
2017-08-08T12:15:54.120Z,60.30
2017-08-08T12:18:20.751Z,59.50
2017-08-08T12:20:47.333Z,60.80
2017-08-08T12:23:13.859Z,60.00
2017-08-08T12:25:40.437Z,60.50
2017-08-08T12:28:07.057Z,60.00
2017-08-08T12:30:33.653Z,61.00
2017-08-08T12:33:00.173Z,60.30
2017-08-08T12:35:27.525Z,60.70
2017-08-08T12:37:54.100Z,60.60
2017-08-08T12:40:20.761Z,60.10
2017-08-08T12:42:47.372Z,61.10
2017-08-08T12:45:13.971Z,61.30
2017-08-08T12:47:40.568Z,61.40
2017-08-08T12:50:07.155Z,61.00
2017-08-08T12:52:33.744Z,61.00
2017-08-08T12:55:00.349Z,60.40
2017-08-08T12:57:26.966Z,61.30
2017-08-08T12:59:53.532Z,61.30
2017-08-08T13:02:22.509Z,61.10
2017-08-08T13:04:49.087Z,61.40
2017-08-08T13:07:15.649Z,62.20
2017-08-08T13:09:42.368Z,62.20
2017-08-08T13:12:08.959Z,62.20
2017-08-08T13:14:35.531Z,62.20
2017-08-08T13:17:02.204Z,62.20
2017-08-08T13:19:32.476Z,63.00
2017-08-08T13:21:59.034Z,62.30
2017-08-08T13:24:25.604Z,62.30
2017-08-08T13:26:52.373Z,62.40
2017-08-08T13:29:18.965Z,62.40
2017-08-08T13:31:45.624Z,62.00
2017-08-08T13:34:12.172Z,62.40
2017-08-08T13:36:38.948Z,62.50
2017-08-08T13:39:05.622Z,62.60
2017-08-08T13:41:33.563Z,62.50
2017-08-08T13:44:00.136Z,62.50
2017-08-08T13:46:26.819Z,62.40
2017-08-08T13:48:53.372Z,62.40
2017-08-08T13:51:19.950Z,62.40
2017-08-08T13:53:46.501Z,63.20
2017-08-08T13:56:15.187Z,62.40
2017-08-08T13:58:41.800Z,62.70
2017-08-08T14:01:08.561Z,62.90
2017-08-08T14:03:35.140Z,62.20
2017-08-08T14:06:02.931Z,62.20
2017-08-08T14:08:29.612Z,62.30
2017-08-08T14:10:57.603Z,63.90
2017-08-08T14:13:29.648Z,63.90
2017-08-08T14:15:56.196Z,64.00
2017-08-08T14:18:22.760Z,64.30
2017-08-08T14:20:49.328Z,65.00
2017-08-08T14:23:15.789Z,65.10
2017-08-08T14:25:47.019Z,64.70
2017-08-08T14:28:13.540Z,64.50
2017-08-08T14:30:40.111Z,64.80
2017-08-08T14:33:06.645Z,65.90
2017-08-08T14:35:33.189Z,65.10
2017-08-08T14:37:59.762Z,65.30
2017-08-08T14:40:29.784Z,65.20
2017-08-08T14:42:56.412Z,66.50
2017-08-08T14:45:22.956Z,65.80
2017-08-08T14:47:49.544Z,66.30
2017-08-08T14:50:16.304Z,67.00
2017-08-08T14:52:42.796Z,67.50
2017-08-08T14:55:13.189Z,68.60
2017-08-08T14:57:39.800Z,68.00
2017-08-08T15:00:06.423Z,67.10
2017-08-08T15:02:32.988Z,65.90
2017-08-08T15:04:59.576Z,66.70
2017-08-08T15:07:26.282Z,66.50
2017-08-08T15:09:52.874Z,67.70
2017-08-08T15:12:19.453Z,65.80
2017-08-08T15:14:46.021Z,63.60
2017-08-08T15:17:12.629Z,64.30
2017-08-08T15:19:41.358Z,62.80
2017-08-08T15:22:07.926Z,62.40
2017-08-08T15:24:34.574Z,63.20
2017-08-08T15:27:01.158Z,63.30
2017-08-08T15:29:27.686Z,63.60
2017-08-08T15:31:54.234Z,63.60
2017-08-08T15:34:20.773Z,62.80
2017-08-08T15:36:47.352Z,61.60
2017-08-08T15:39:13.779Z,61.40
2017-08-08T15:41:40.376Z,60.90
2017-08-08T15:44:06.957Z,61.80
2017-08-08T15:46:33.596Z,60.80
2017-08-08T15:49:00.150Z,59.70
2017-08-08T15:51:33.432Z,60.50
2017-08-08T15:53:59.969Z,58.80
2017-08-08T15:56:27.036Z,59.20
2017-08-08T15:58:53.364Z,58.60
2017-08-08T16:01:19.696Z,58.60
2017-08-08T16:03:46.041Z,57.60
2017-08-08T16:06:12.409Z,57.30
2017-08-08T16:08:38.725Z,58.40
2017-08-08T16:11:05.808Z,58.20
2017-08-08T16:13:32.364Z,58.30
2017-08-08T16:15:58.966Z,59.40
2017-08-08T16:18:25.345Z,57.70
2017-08-08T16:20:51.954Z,57.10
2017-08-08T16:23:18.359Z,57.60
2017-08-08T16:25:44.898Z,58.40
2017-08-08T16:28:11.315Z,58.00
2017-08-08T16:30:37.865Z,57.70
2017-08-08T16:33:04.400Z,57.40
2017-08-08T16:35:34.575Z,58.20
2017-08-08T16:38:00.904Z,57.80
2017-08-08T16:43:01.021Z,58.50
2017-08-08T16:45:27.389Z,58.50
2017-08-08T16:47:53.737Z,58.60
2017-08-08T16:50:20.213Z,58.00
2017-08-08T16:52:47.022Z,58.80
2017-08-08T16:55:13.347Z,58.40
2017-08-08T16:57:39.659Z,58.20
2017-08-08T17:00:06.082Z,54.40
2017-08-08T17:02:32.433Z,53.90
2017-08-08T17:04:58.760Z,52.40
2017-08-08T17:07:25.190Z,54.60
2017-08-08T17:09:51.575Z,57.70
2017-08-08T17:12:18.018Z,59.90
2017-08-08T17:14:44.356Z,60.40
2017-08-08T17:17:10.764Z,62.10
2017-08-08T17:19:37.276Z,62.00
2017-08-08T17:22:03.658Z,64.20
2017-08-08T17:24:30.109Z,63.40
2017-08-08T17:27:02.690Z,64.10
2017-08-08T17:29:29.028Z,63.70
2017-08-08T17:31:55.380Z,63.70
2017-08-08T17:34:21.721Z,63.90
2017-08-08T17:36:48.094Z,64.70
2017-08-08T17:39:14.551Z,64.30
2017-08-08T17:41:40.947Z,65.50
2017-08-08T17:44:07.346Z,65.60
2017-08-08T17:46:33.800Z,65.50
2017-08-08T17:49:00.184Z,66.60
2017-08-08T17:51:26.544Z,66.80
2017-08-08T17:53:52.919Z,65.90
2017-08-08T17:56:19.301Z,65.40
2017-08-08T17:58:45.661Z,65.60
2017-08-08T18:01:12.778Z,65.80
2017-08-08T18:03:39.108Z,65.70
2017-08-08T18:06:05.531Z,66.30
2017-08-08T18:08:31.860Z,65.80
2017-08-08T18:10:58.242Z,66.40
2017-08-08T18:13:24.764Z,66.00
2017-08-08T18:15:51.158Z,65.60
2017-08-08T18:18:17.506Z,65.40
2017-08-08T18:20:43.909Z,65.00
2017-08-08T18:23:10.245Z,65.40
2017-08-08T18:25:36.623Z,65.70
2017-08-08T18:28:02.976Z,65.10
2017-08-08T18:30:29.325Z,65.10
2017-08-08T18:32:55.716Z,65.20
2017-08-08T18:35:22.945Z,64.40
2017-08-08T18:37:49.694Z,64.10
2017-08-08T18:40:16.236Z,63.40
2017-08-08T18:42:43.620Z,61.90
2017-08-08T18:45:09.969Z,61.80
2017-08-08T18:47:36.301Z,62.70
2017-08-08T18:50:02.678Z,62.40
2017-08-08T18:52:29.240Z,61.70
2017-08-08T18:54:55.849Z,61.60
2017-08-08T18:57:23.144Z,61.50
2017-08-08T18:59:49.500Z,61.50
2017-08-08T19:02:16.813Z,61.70
2017-08-08T19:04:43.123Z,61.70
2017-08-08T19:07:10.185Z,60.60
2017-08-08T19:09:37.208Z,61.10
2017-08-08T19:12:04.363Z,61.00
2017-08-08T19:14:30.821Z,61.00
2017-08-08T19:16:57.158Z,60.90
2017-08-08T19:19:23.490Z,60.90
2017-08-08T19:21:49.840Z,61.20
2017-08-08T19:24:16.412Z,62.40
2017-08-08T19:26:43.031Z,62.80
2017-08-08T19:29:09.574Z,61.60
2017-08-08T19:31:36.237Z,61.20
2017-08-08T19:34:02.592Z,62.80
2017-08-08T19:36:29.934Z,60.60
2017-08-08T19:38:57.259Z,61.90
2017-08-08T19:41:23.632Z,61.20
2017-08-08T19:43:49.980Z,60.70
2017-08-08T19:46:16.397Z,60.60
2017-08-08T19:48:42.757Z,60.60
2017-08-08T19:51:09.298Z,60.90
2017-08-08T19:53:35.858Z,60.70
2017-08-08T19:56:02.402Z,60.60
2017-08-08T19:58:29.049Z,60.70
2017-08-08T20:00:56.749Z,61.00
2017-08-08T20:03:23.361Z,60.60
2017-08-08T20:05:49.933Z,60.90
2017-08-08T20:08:16.579Z,61.20
2017-08-08T20:10:43.261Z,61.90
2017-08-08T20:13:09.993Z,60.60
2017-08-08T20:15:36.599Z,61.40
2017-08-08T20:18:03.380Z,60.60
2017-08-08T20:20:30.009Z,60.60
2017-08-08T20:22:56.602Z,60.60
2017-08-08T20:25:23.332Z,60.60
2017-08-08T20:27:49.931Z,60.60
2017-08-08T20:30:16.489Z,61.40
2017-08-08T20:32:43.091Z,60.60
2017-08-08T20:35:09.632Z,60.80
2017-08-08T20:37:36.232Z,60.50
2017-08-08T20:40:03.695Z,60.60
2017-08-08T20:42:30.305Z,60.80
2017-08-08T20:44:56.896Z,60.60
2017-08-08T20:47:23.478Z,61.40
2017-08-08T20:49:50.125Z,61.80
2017-08-08T20:52:16.740Z,60.60
2017-08-08T20:54:43.271Z,60.60
2017-08-08T20:57:09.821Z,60.50
2017-08-08T20:59:37.218Z,61.20
2017-08-08T21:02:03.781Z,61.80
2017-08-08T21:04:30.364Z,61.20
2017-08-08T21:06:57.697Z,60.60
2017-08-08T21:09:24.465Z,60.60
2017-08-08T21:11:50.998Z,61.30
2017-08-08T21:14:17.557Z,61.70
2017-08-08T21:16:44.115Z,61.60
2017-08-08T21:19:11.485Z,60.50
2017-08-08T21:21:37.823Z,61.00
2017-08-08T21:24:04.246Z,61.70
2017-08-08T21:26:30.804Z,60.60
2017-08-08T21:28:57.251Z,61.10
2017-08-08T21:31:23.846Z,60.30
2017-08-08T21:33:50.569Z,60.20
2017-08-08T21:36:17.193Z,60.00
2017-08-08T21:38:43.788Z,61.40
2017-08-08T21:41:10.401Z,61.80
2017-08-08T21:43:37.024Z,62.90
2017-08-08T21:46:03.413Z,62.60
2017-08-08T21:48:29.995Z,61.90
2017-08-08T21:50:56.369Z,61.60
2017-08-08T21:53:23.797Z,61.90
2017-08-08T21:55:50.410Z,62.10
2017-08-08T21:58:16.999Z,62.10
2017-08-08T22:00:43.584Z,62.10
2017-08-08T22:03:10.152Z,62.50
2017-08-08T22:05:37.551Z,63.20
2017-08-08T22:08:04.105Z,63.10
2017-08-08T22:10:30.706Z,63.80
2017-08-08T22:12:57.746Z,63.80
2017-08-08T22:15:24.876Z,64.20
2017-08-08T22:17:51.307Z,64.40
2017-08-08T22:20:17.935Z,64.00
2017-08-08T22:22:44.546Z,64.50
2017-08-08T22:25:11.065Z,65.70
2017-08-08T22:27:38.413Z,64.50
2017-08-08T22:30:06.114Z,64.40
2017-08-08T22:32:33.095Z,64.30
2017-08-08T22:35:00.813Z,65.70
2017-08-08T22:37:27.315Z,65.30
2017-08-08T22:39:53.888Z,65.30
2017-08-08T22:42:21.388Z,65.10
2017-08-08T22:44:48.008Z,64.30
2017-08-08T22:47:14.656Z,64.90
2017-08-08T22:49:41.271Z,64.30
2017-08-08T22:52:07.875Z,64.40
2017-08-08T22:54:34.593Z,65.00
2017-08-08T22:57:01.223Z,65.80
2017-08-08T22:59:27.822Z,65.20
2017-08-08T23:01:54.512Z,65.90
2017-08-08T23:04:20.988Z,66.60
2017-08-08T23:06:47.606Z,67.30
2017-08-08T23:09:14.475Z,65.10
2017-08-08T23:11:41.112Z,65.90
2017-08-08T23:14:07.693Z,65.80
2017-08-08T23:16:34.288Z,65.90
2017-08-08T23:19:00.849Z,66.00
2017-08-08T23:21:27.748Z,65.00
2017-08-08T23:23:54.972Z,65.50
2017-08-08T23:26:21.604Z,65.50
2017-08-08T23:28:48.182Z,64.30
2017-08-08T23:31:14.776Z,65.60
2017-08-08T23:33:41.776Z,66.00
2017-08-08T23:36:08.974Z,66.50
2017-08-08T23:38:35.300Z,66.40
2017-08-08T23:41:01.675Z,65.60
2017-08-08T23:43:28.261Z,66.80
2017-08-08T23:45:54.814Z,66.80
2017-08-08T23:48:21.406Z,66.60
2017-08-08T23:50:47.961Z,67.20
2017-08-08T23:53:14.541Z,66.70
2017-08-08T23:55:49.453Z,67.30
2017-08-08T23:58:15.796Z,67.00
